Aviation Digital Data Service (ADDS)

Output produced by METARs form (0335 UTC 26 October 2014)
found at http://aviationweather.gov/adds/metars/
 
KORH 252321Z 2600/2624 24007KT P6SM SCT080 BKN250 
     FM260200 24007KT P6SM BKN060 
     FM260600 26013G22KT P6SM SCT150 
     FM261300 28016G26KT P6SM BKN050